createdAt,value
2023-04-09T04:37:54.120Z,10.30
2023-04-09T04:52:57.217Z,9.70
2023-04-09T05:08:03.319Z,9.02
2023-04-09T05:23:05.491Z,8.70
2023-04-09T05:38:16.631Z,12.13
2023-04-09T05:53:23.121Z,11.02
2023-04-09T06:08:25.096Z,11.05
2023-04-09T06:23:27.043Z,11.18
2023-04-09T06:38:29.051Z,11.13
2023-04-09T06:53:31.135Z,10.40
2023-04-09T07:08:33.194Z,10.50
2023-04-09T07:23:36.405Z,10.45
2023-04-09T07:38:38.296Z,10.10
2023-04-09T07:53:40.474Z,15.05
2023-04-09T08:08:43.585Z,11.63
2023-04-09T08:23:46.117Z,10.70
2023-04-09T08:38:48.810Z,19.88
2023-04-09T08:53:57.222Z,20.02
2023-04-09T09:09:08.065Z,17.35
2023-04-09T09:24:19.229Z,12.43
2023-04-09T09:39:22.335Z,11.60
2023-04-09T09:54:24.367Z,10.77
2023-04-09T10:09:26.794Z,10.18
2023-04-09T10:24:28.758Z,10.45
2023-04-09T10:39:34.032Z,9.40
2023-04-09T10:54:36.286Z,9.32
2023-04-09T11:09:38.194Z,8.90
2023-04-09T11:24:43.563Z,8.93
2023-04-09T11:39:45.858Z,8.40
2023-04-09T11:54:50.903Z,8.02
2023-04-09T12:09:53.762Z,7.40
2023-04-09T12:24:55.648Z,7.80
2023-04-09T12:39:57.583Z,7.90
2023-04-09T12:54:59.486Z,7.68
2023-04-09T13:10:01.564Z,7.68
2023-04-09T13:25:04.398Z,7.55
2023-04-09T13:40:09.068Z,7.25
2023-04-09T13:55:11.583Z,7.10
2023-04-09T14:10:13.530Z,7.68
2023-04-09T14:25:15.589Z,7.45
2023-04-09T14:40:17.540Z,7.32
2023-04-09T14:55:19.567Z,7.70
2023-04-09T15:10:21.591Z,7.65
2023-04-09T15:25:24.606Z,7.40
2023-04-09T15:40:26.530Z,7.38
2023-04-09T15:55:28.404Z,6.95
2023-04-09T16:10:31.021Z,7.22
2023-04-09T16:25:32.953Z,7.60
2023-04-09T16:40:35.979Z,10.57
2023-04-09T16:55:38.433Z,7.55
2023-04-09T17:10:40.622Z,7.93
2023-04-09T17:25:42.751Z,8.05
2023-04-09T17:40:44.666Z,7.93
2023-04-09T17:55:49.644Z,7.47
2023-04-09T18:11:11.454Z,7.70
2023-04-09T18:26:18.979Z,7.72
2023-04-09T18:41:29.222Z,8.25
2023-04-09T18:57:04.674Z,8.32
2023-04-09T19:12:07.219Z,7.60
2023-04-09T19:27:27.972Z,7.88
2023-04-09T19:42:35.868Z,8.23
2023-04-09T19:57:40.818Z,7.82
2023-04-09T20:12:43.121Z,8.18
2023-04-09T20:43:27.156Z,8.18
2023-04-09T20:58:29.444Z,7.88
